sensor_id;sensor_type;location;lat;lon;timestamp;P1;durP1;ratioP1;P2;durP2;ratioP2
24173;SDS011;12324;48.146;11.502;2022-08-25T00:01:44;8.05;;;3.05;;
24173;SDS011;12324;48.146;11.502;2022-08-25T00:04:14;6.72;;;3.65;;
24173;SDS011;12324;48.146;11.502;2022-08-25T00:06:44;8.30;;;3.88;;
24173;SDS011;12324;48.146;11.502;2022-08-25T00:09:12;12.18;;;4.60;;
24173;SDS011;12324;48.146;11.502;2022-08-25T00:11:41;8.77;;;4.10;;
24173;SDS011;12324;48.146;11.502;2022-08-25T00:14:10;8.77;;;3.65;;
24173;SDS011;12324;48.146;11.502;2022-08-25T00:16:39;10.20;;;3.92;;
24173;SDS011;12324;48.146;11.502;2022-08-25T00:19:08;7.82;;;3.90;;
24173;SDS011;12324;48.146;11.502;2022-08-25T00:21:40;7.53;;;3.88;;
24173;SDS011;12324;48.146;11.502;2022-08-25T00:24:09;8.60;;;3.90;;
24173;SDS011;12324;48.146;11.502;2022-08-25T00:26:37;6.13;;;3.60;;
24173;SDS011;12324;48.146;11.502;2022-08-25T00:29:06;8.10;;;3.90;;
24173;SDS011;12324;48.146;11.502;2022-08-25T00:31:34;8.85;;;4.30;;
24173;SDS011;12324;48.146;11.502;2022-08-25T00:34:05;8.88;;;4.18;;
24173;SDS011;12324;48.146;11.502;2022-08-25T00:36:34;7.97;;;3.65;;
24173;SDS011;12324;48.146;11.502;2022-08-25T00:39:02;8.30;;;3.97;;
24173;SDS011;12324;48.146;11.502;2022-08-25T00:41:29;8.43;;;4.15;;
24173;SDS011;12324;48.146;11.502;2022-08-25T00:43:57;9.00;;;4.20;;
24173;SDS011;12324;48.146;11.502;2022-08-25T00:46:28;7.53;;;3.80;;
24173;SDS011;12324;48.146;11.502;2022-08-25T00:48:58;8.30;;;4.15;;
24173;SDS011;12324;48.146;11.502;2022-08-25T00:51:31;8.98;;;4.13;;
24173;SDS011;12324;48.146;11.502;2022-08-25T00:54:03;8.05;;;3.80;;
24173;SDS011;12324;48.146;11.502;2022-08-25T00:56:34;9.90;;;4.60;;
24173;SDS011;12324;48.146;11.502;2022-08-25T00:59:03;9.05;;;4.18;;
24173;SDS011;12324;48.146;11.502;2022-08-25T01:01:31;9.98;;;4.50;;
24173;SDS011;12324;48.146;11.502;2022-08-25T01:03:58;7.28;;;4.05;;
24173;SDS011;12324;48.146;11.502;2022-08-25T01:06:26;10.60;;;4.38;;
24173;SDS011;12324;48.146;11.502;2022-08-25T01:08:56;9.82;;;4.13;;
24173;SDS011;12324;48.146;11.502;2022-08-25T01:11:23;7.80;;;4.25;;
24173;SDS011;12324;48.146;11.502;2022-08-25T01:13:54;12.23;;;5.00;;
24173;SDS011;12324;48.146;11.502;2022-08-25T01:16:24;8.73;;;3.92;;
24173;SDS011;12324;48.146;11.502;2022-08-25T01:18:55;11.18;;;4.47;;
24173;SDS011;12324;48.146;11.502;2022-08-25T01:21:24;8.70;;;4.50;;
24173;SDS011;12324;48.146;11.502;2022-08-25T01:23:53;8.30;;;4.30;;
24173;SDS011;12324;48.146;11.502;2022-08-25T01:26:25;7.95;;;4.20;;
24173;SDS011;12324;48.146;11.502;2022-08-25T01:28:56;11.20;;;4.32;;
24173;SDS011;12324;48.146;11.502;2022-08-25T01:31:45;9.50;;;4.45;;
24173;SDS011;12324;48.146;11.502;2022-08-25T01:34:15;9.43;;;4.25;;
24173;SDS011;12324;48.146;11.502;2022-08-25T01:36:45;10.68;;;4.88;;
24173;SDS011;12324;48.146;11.502;2022-08-25T01:39:14;10.73;;;4.63;;
24173;SDS011;12324;48.146;11.502;2022-08-25T01:44:31;10.15;;;4.53;;
24173;SDS011;12324;48.146;11.502;2022-08-25T01:47:01;8.25;;;4.35;;
24173;SDS011;12324;48.146;11.502;2022-08-25T01:49:29;13.02;;;5.22;;
24173;SDS011;12324;48.146;11.502;2022-08-25T01:51:58;12.95;;;5.18;;
24173;SDS011;12324;48.146;11.502;2022-08-25T01:54:46;12.55;;;5.68;;
24173;SDS011;12324;48.146;11.502;2022-08-25T01:57:13;9.45;;;4.40;;
24173;SDS011;12324;48.146;11.502;2022-08-25T01:59:40;11.60;;;4.90;;
24173;SDS011;12324;48.146;11.502;2022-08-25T02:02:07;10.40;;;4.50;;
24173;SDS011;12324;48.146;11.502;2022-08-25T02:04:35;9.48;;;4.85;;
24173;SDS011;12324;48.146;11.502;2022-08-25T02:07:03;12.48;;;5.00;;
24173;SDS011;12324;48.146;11.502;2022-08-25T02:09:33;9.52;;;3.95;;
24173;SDS011;12324;48.146;11.502;2022-08-25T02:12:01;8.95;;;4.65;;
24173;SDS011;12324;48.146;11.502;2022-08-25T02:14:28;9.23;;;4.30;;
24173;SDS011;12324;48.146;11.502;2022-08-25T02:16:54;13.13;;;5.50;;
24173;SDS011;12324;48.146;11.502;2022-08-25T02:19:22;8.77;;;4.15;;
24173;SDS011;12324;48.146;11.502;2022-08-25T02:21:50;13.45;;;5.13;;
24173;SDS011;12324;48.146;11.502;2022-08-25T02:24:17;13.70;;;6.00;;
24173;SDS011;12324;48.146;11.502;2022-08-25T02:26:44;14.68;;;5.85;;
24173;SDS011;12324;48.146;11.502;2022-08-25T02:29:11;15.13;;;5.82;;
24173;SDS011;12324;48.146;11.502;2022-08-25T02:31:38;12.70;;;5.90;;
24173;SDS011;12324;48.146;11.502;2022-08-25T02:34:05;15.73;;;6.93;;
24173;SDS011;12324;48.146;11.502;2022-08-25T02:36:32;16.40;;;7.00;;
24173;SDS011;12324;48.146;11.502;2022-08-25T02:38:59;13.32;;;6.03;;
24173;SDS011;12324;48.146;11.502;2022-08-25T02:41:29;14.52;;;7.00;;
24173;SDS011;12324;48.146;11.502;2022-08-25T02:43:57;16.02;;;7.63;;
24173;SDS011;12324;48.146;11.502;2022-08-25T02:46:27;14.43;;;7.63;;
24173;SDS011;12324;48.146;11.502;2022-08-25T02:48:54;15.95;;;7.18;;
24173;SDS011;12324;48.146;11.502;2022-08-25T02:51:21;17.20;;;8.07;;
24173;SDS011;12324;48.146;11.502;2022-08-25T02:53:50;15.70;;;7.68;;
24173;SDS011;12324;48.146;11.502;2022-08-25T02:56:17;15.88;;;7.82;;
24173;SDS011;12324;48.146;11.502;2022-08-25T02:58:45;15.48;;;7.80;;
24173;SDS011;12324;48.146;11.502;2022-08-25T03:01:13;15.48;;;7.20;;
24173;SDS011;12324;48.146;11.502;2022-08-25T03:03:42;13.05;;;6.25;;
24173;SDS011;12324;48.146;11.502;2022-08-25T03:06:11;14.57;;;6.80;;
24173;SDS011;12324;48.146;11.502;2022-08-25T03:08:39;16.00;;;7.45;;
24173;SDS011;12324;48.146;11.502;2022-08-25T03:11:08;14.70;;;6.65;;
24173;SDS011;12324;48.146;11.502;2022-08-25T03:13:35;15.43;;;7.65;;
24173;SDS011;12324;48.146;11.502;2022-08-25T03:16:03;19.50;;;7.80;;
24173;SDS011;12324;48.146;11.502;2022-08-25T03:18:36;13.63;;;6.18;;
24173;SDS011;12324;48.146;11.502;2022-08-25T03:21:05;15.73;;;7.28;;
24173;SDS011;12324;48.146;11.502;2022-08-25T03:23:32;13.07;;;6.70;;
24173;SDS011;12324;48.146;11.502;2022-08-25T03:25:59;15.07;;;7.20;;
24173;SDS011;12324;48.146;11.502;2022-08-25T03:28:44;15.88;;;6.95;;
24173;SDS011;12324;48.146;11.502;2022-08-25T03:31:11;15.48;;;6.57;;
24173;SDS011;12324;48.146;11.502;2022-08-25T03:33:38;14.35;;;6.88;;
24173;SDS011;12324;48.146;11.502;2022-08-25T03:36:05;13.57;;;5.85;;
24173;SDS011;12324;48.146;11.502;2022-08-25T03:38:33;17.02;;;6.35;;
24173;SDS011;12324;48.146;11.502;2022-08-25T03:43:46;14.35;;;7.28;;
24173;SDS011;12324;48.146;11.502;2022-08-25T03:46:21;15.35;;;7.25;;
24173;SDS011;12324;48.146;11.502;2022-08-25T03:48:50;14.95;;;7.25;;
24173;SDS011;12324;48.146;11.502;2022-08-25T03:51:21;15.52;;;7.78;;
24173;SDS011;12324;48.146;11.502;2022-08-25T03:53:54;16.00;;;6.65;;
24173;SDS011;12324;48.146;11.502;2022-08-25T03:56:21;15.07;;;6.68;;
24173;SDS011;12324;48.146;11.502;2022-08-25T03:58:49;15.10;;;7.60;;
24173;SDS011;12324;48.146;11.502;2022-08-25T04:01:16;17.42;;;7.80;;
24173;SDS011;12324;48.146;11.502;2022-08-25T04:03:43;13.52;;;7.28;;
24173;SDS011;12324;48.146;11.502;2022-08-25T04:06:11;16.92;;;7.50;;
24173;SDS011;12324;48.146;11.502;2022-08-25T04:08:38;17.80;;;8.00;;
24173;SDS011;12324;48.146;11.502;2022-08-25T04:11:09;16.58;;;8.20;;
24173;SDS011;12324;48.146;11.502;2022-08-25T04:13:40;13.25;;;6.25;;
24173;SDS011;12324;48.146;11.502;2022-08-25T04:16:11;15.98;;;7.53;;
24173;SDS011;12324;48.146;11.502;2022-08-25T04:18:40;15.70;;;7.47;;
24173;SDS011;12324;48.146;11.502;2022-08-25T04:21:08;14.90;;;6.97;;
24173;SDS011;12324;48.146;11.502;2022-08-25T04:23:39;16.70;;;7.72;;
24173;SDS011;12324;48.146;11.502;2022-08-25T04:26:11;15.93;;;8.27;;
24173;SDS011;12324;48.146;11.502;2022-08-25T04:28:59;14.05;;;7.43;;
24173;SDS011;12324;48.146;11.502;2022-08-25T04:31:28;15.57;;;7.45;;
24173;SDS011;12324;48.146;11.502;2022-08-25T04:33:56;17.50;;;8.20;;
24173;SDS011;12324;48.146;11.502;2022-08-25T04:36:23;15.20;;;6.97;;
24173;SDS011;12324;48.146;11.502;2022-08-25T04:38:50;15.50;;;8.27;;
24173;SDS011;12324;48.146;11.502;2022-08-25T04:41:17;14.75;;;6.15;;
24173;SDS011;12324;48.146;11.502;2022-08-25T04:43:46;13.23;;;6.35;;
24173;SDS011;12324;48.146;11.502;2022-08-25T04:46:14;15.80;;;6.78;;
24173;SDS011;12324;48.146;11.502;2022-08-25T04:48:49;17.73;;;7.10;;
24173;SDS011;12324;48.146;11.502;2022-08-25T04:51:17;16.38;;;7.50;;
24173;SDS011;12324;48.146;11.502;2022-08-25T04:53:49;14.48;;;6.57;;
24173;SDS011;12324;48.146;11.502;2022-08-25T04:56:18;14.95;;;7.55;;
24173;SDS011;12324;48.146;11.502;2022-08-25T04:58:46;16.05;;;7.10;;
24173;SDS011;12324;48.146;11.502;2022-08-25T05:01:13;16.00;;;7.65;;
24173;SDS011;12324;48.146;11.502;2022-08-25T05:03:42;16.88;;;8.02;;
24173;SDS011;12324;48.146;11.502;2022-08-25T05:06:11;16.73;;;7.70;;
24173;SDS011;12324;48.146;11.502;2022-08-25T05:08:41;15.48;;;7.20;;
24173;SDS011;12324;48.146;11.502;2022-08-25T05:11:11;17.50;;;8.52;;
24173;SDS011;12324;48.146;11.502;2022-08-25T05:13:39;18.23;;;8.80;;
24173;SDS011;12324;48.146;11.502;2022-08-25T05:16:07;19.20;;;9.60;;
24173;SDS011;12324;48.146;11.502;2022-08-25T05:18:36;16.75;;;8.32;;
24173;SDS011;12324;48.146;11.502;2022-08-25T05:21:04;18.80;;;9.77;;
24173;SDS011;12324;48.146;11.502;2022-08-25T05:23:32;18.02;;;9.68;;
24173;SDS011;12324;48.146;11.502;2022-08-25T05:26:08;18.05;;;8.73;;
24173;SDS011;12324;48.146;11.502;2022-08-25T05:28:38;20.90;;;10.35;;
24173;SDS011;12324;48.146;11.502;2022-08-25T05:31:07;18.25;;;9.57;;
24173;SDS011;12324;48.146;11.502;2022-08-25T05:33:35;21.33;;;10.52;;
24173;SDS011;12324;48.146;11.502;2022-08-25T05:36:03;18.33;;;9.57;;
24173;SDS011;12324;48.146;11.502;2022-08-25T05:38:30;18.10;;;8.98;;
24173;SDS011;12324;48.146;11.502;2022-08-25T05:40:58;18.05;;;9.07;;
24173;SDS011;12324;48.146;11.502;2022-08-25T05:43:26;18.02;;;9.30;;
24173;SDS011;12324;48.146;11.502;2022-08-25T05:45:54;17.98;;;9.35;;
24173;SDS011;12324;48.146;11.502;2022-08-25T05:48:22;18.40;;;9.15;;
24173;SDS011;12324;48.146;11.502;2022-08-25T05:50:53;20.92;;;11.00;;
24173;SDS011;12324;48.146;11.502;2022-08-25T05:53:21;19.02;;;9.88;;
24173;SDS011;12324;48.146;11.502;2022-08-25T05:55:49;18.98;;;9.77;;
24173;SDS011;12324;48.146;11.502;2022-08-25T05:58:17;17.90;;;8.95;;
24173;SDS011;12324;48.146;11.502;2022-08-25T06:00:44;15.13;;;8.60;;
24173;SDS011;12324;48.146;11.502;2022-08-25T06:03:11;17.85;;;8.85;;
24173;SDS011;12324;48.146;11.502;2022-08-25T06:05:38;18.17;;;9.55;;
24173;SDS011;12324;48.146;11.502;2022-08-25T06:08:06;17.77;;;9.90;;
24173;SDS011;12324;48.146;11.502;2022-08-25T06:10:33;17.92;;;9.02;;
24173;SDS011;12324;48.146;11.502;2022-08-25T06:13:01;17.27;;;8.88;;
24173;SDS011;12324;48.146;11.502;2022-08-25T06:15:31;17.90;;;8.70;;
24173;SDS011;12324;48.146;11.502;2022-08-25T06:17:59;16.45;;;8.30;;
24173;SDS011;12324;48.146;11.502;2022-08-25T06:20:29;17.00;;;8.82;;
24173;SDS011;12324;48.146;11.502;2022-08-25T06:22:57;17.05;;;7.72;;
24173;SDS011;12324;48.146;11.502;2022-08-25T06:25:25;15.60;;;7.55;;
24173;SDS011;12324;48.146;11.502;2022-08-25T06:27:53;18.02;;;7.50;;
24173;SDS011;12324;48.146;11.502;2022-08-25T06:30:21;14.45;;;7.93;;
24173;SDS011;12324;48.146;11.502;2022-08-25T06:32:54;15.60;;;7.82;;
24173;SDS011;12324;48.146;11.502;2022-08-25T06:35:22;14.93;;;7.22;;
24173;SDS011;12324;48.146;11.502;2022-08-25T06:37:49;15.93;;;7.78;;
24173;SDS011;12324;48.146;11.502;2022-08-25T06:40:16;16.42;;;7.72;;
24173;SDS011;12324;48.146;11.502;2022-08-25T06:42:46;13.75;;;6.90;;
24173;SDS011;12324;48.146;11.502;2022-08-25T06:45:14;16.73;;;8.55;;
24173;SDS011;12324;48.146;11.502;2022-08-25T06:47:41;15.50;;;7.50;;
24173;SDS011;12324;48.146;11.502;2022-08-25T06:50:10;14.48;;;7.68;;
24173;SDS011;12324;48.146;11.502;2022-08-25T06:52:38;13.45;;;7.00;;
24173;SDS011;12324;48.146;11.502;2022-08-25T06:55:05;16.20;;;6.97;;
24173;SDS011;12324;48.146;11.502;2022-08-25T06:57:32;14.73;;;6.75;;
24173;SDS011;12324;48.146;11.502;2022-08-25T07:00:02;13.02;;;7.05;;
24173;SDS011;12324;48.146;11.502;2022-08-25T07:02:29;11.93;;;6.35;;
24173;SDS011;12324;48.146;11.502;2022-08-25T07:05:00;15.15;;;7.63;;
24173;SDS011;12324;48.146;11.502;2022-08-25T07:07:29;12.13;;;6.07;;
24173;SDS011;12324;48.146;11.502;2022-08-25T07:10:08;16.35;;;7.40;;
24173;SDS011;12324;48.146;11.502;2022-08-25T07:12:35;12.85;;;6.63;;
24173;SDS011;12324;48.146;11.502;2022-08-25T07:15:02;12.68;;;6.43;;
24173;SDS011;12324;48.146;11.502;2022-08-25T07:17:45;15.00;;;6.40;;
24173;SDS011;12324;48.146;11.502;2022-08-25T07:20:12;16.80;;;7.95;;
24173;SDS011;12324;48.146;11.502;2022-08-25T07:22:40;13.95;;;6.80;;
24173;SDS011;12324;48.146;11.502;2022-08-25T07:25:09;15.40;;;7.32;;
24173;SDS011;12324;48.146;11.502;2022-08-25T07:27:37;13.02;;;6.65;;
24173;SDS011;12324;48.146;11.502;2022-08-25T07:30:07;14.90;;;7.13;;
24173;SDS011;12324;48.146;11.502;2022-08-25T07:32:36;14.73;;;7.40;;
24173;SDS011;12324;48.146;11.502;2022-08-25T07:35:08;17.60;;;7.30;;
24173;SDS011;12324;48.146;11.502;2022-08-25T07:37:45;13.63;;;6.40;;
24173;SDS011;12324;48.146;11.502;2022-08-25T07:40:34;11.77;;;6.18;;
24173;SDS011;12324;48.146;11.502;2022-08-25T07:43:05;17.02;;;6.47;;
24173;SDS011;12324;48.146;11.502;2022-08-25T07:45:36;12.85;;;6.75;;
24173;SDS011;12324;48.146;11.502;2022-08-25T07:48:24;11.20;;;5.50;;
24173;SDS011;12324;48.146;11.502;2022-08-25T07:50:51;13.30;;;6.13;;
24173;SDS011;12324;48.146;11.502;2022-08-25T07:53:18;13.25;;;6.63;;
24173;SDS011;12324;48.146;11.502;2022-08-25T07:55:47;12.88;;;6.20;;
24173;SDS011;12324;48.146;11.502;2022-08-25T07:58:18;11.13;;;5.53;;
24173;SDS011;12324;48.146;11.502;2022-08-25T08:00:47;13.43;;;5.95;;
24173;SDS011;12324;48.146;11.502;2022-08-25T08:03:15;11.82;;;6.82;;
24173;SDS011;12324;48.146;11.502;2022-08-25T08:06:06;13.73;;;6.43;;
24173;SDS011;12324;48.146;11.502;2022-08-25T08:08:36;12.13;;;6.18;;
24173;SDS011;12324;48.146;11.502;2022-08-25T08:11:04;11.82;;;5.40;;
24173;SDS011;12324;48.146;11.502;2022-08-25T08:13:34;13.60;;;7.15;;
24173;SDS011;12324;48.146;11.502;2022-08-25T08:16:09;12.90;;;6.75;;
24173;SDS011;12324;48.146;11.502;2022-08-25T08:18:38;11.60;;;6.20;;
24173;SDS011;12324;48.146;11.502;2022-08-25T08:21:09;15.73;;;6.10;;
24173;SDS011;12324;48.146;11.502;2022-08-25T08:23:37;10.63;;;5.28;;
24173;SDS011;12324;48.146;11.502;2022-08-25T08:26:04;12.43;;;5.80;;
24173;SDS011;12324;48.146;11.502;2022-08-25T08:28:31;13.50;;;5.82;;
24173;SDS011;12324;48.146;11.502;2022-08-25T08:30:59;10.27;;;5.40;;
24173;SDS011;12324;48.146;11.502;2022-08-25T08:33:27;13.95;;;6.07;;
24173;SDS011;12324;48.146;11.502;2022-08-25T08:35:58;11.95;;;6.40;;
24173;SDS011;12324;48.146;11.502;2022-08-25T08:38:30;13.18;;;5.57;;
24173;SDS011;12324;48.146;11.502;2022-08-25T08:40:59;12.80;;;5.80;;
24173;SDS011;12324;48.146;11.502;2022-08-25T08:43:49;10.07;;;5.25;;
24173;SDS011;12324;48.146;11.502;2022-08-25T08:46:20;12.23;;;5.60;;
24173;SDS011;12324;48.146;11.502;2022-08-25T08:49:10;13.40;;;5.72;;
24173;SDS011;12324;48.146;11.502;2022-08-25T08:51:53;9.23;;;4.93;;
24173;SDS011;12324;48.146;11.502;2022-08-25T08:54:22;10.77;;;5.45;;
24173;SDS011;12324;48.146;11.502;2022-08-25T08:56:57;12.38;;;5.60;;
24173;SDS011;12324;48.146;11.502;2022-08-25T08:59:30;10.27;;;5.13;;
24173;SDS011;12324;48.146;11.502;2022-08-25T09:01:59;10.27;;;5.22;;
24173;SDS011;12324;48.146;11.502;2022-08-25T09:04:34;13.43;;;5.75;;
24173;SDS011;12324;48.146;11.502;2022-08-25T09:07:05;9.15;;;5.57;;
24173;SDS011;12324;48.146;11.502;2022-08-25T09:09:36;11.65;;;4.97;;
24173;SDS011;12324;48.146;11.502;2022-08-25T09:12:31;11.68;;;5.13;;
24173;SDS011;12324;48.146;11.502;2022-08-25T09:15:02;12.43;;;5.72;;
24173;SDS011;12324;48.146;11.502;2022-08-25T09:17:44;10.88;;;4.65;;
24173;SDS011;12324;48.146;11.502;2022-08-25T09:20:38;16.00;;;5.85;;
24173;SDS011;12324;48.146;11.502;2022-08-25T09:23:21;13.38;;;6.30;;
24173;SDS011;12324;48.146;11.502;2022-08-25T09:28:31;13.48;;;5.40;;
24173;SDS011;12324;48.146;11.502;2022-08-25T09:31:16;10.73;;;4.80;;
24173;SDS011;12324;48.146;11.502;2022-08-25T09:33:45;11.77;;;5.40;;
24173;SDS011;12324;48.146;11.502;2022-08-25T09:36:12;9.80;;;5.00;;
24173;SDS011;12324;48.146;11.502;2022-08-25T09:38:39;11.07;;;5.05;;
24173;SDS011;12324;48.146;11.502;2022-08-25T09:41:07;12.00;;;5.40;;
24173;SDS011;12324;48.146;11.502;2022-08-25T09:43:38;10.18;;;4.68;;
24173;SDS011;12324;48.146;11.502;2022-08-25T09:48:46;9.77;;;5.13;;
24173;SDS011;12324;48.146;11.502;2022-08-25T09:51:24;12.65;;;5.28;;
24173;SDS011;12324;48.146;11.502;2022-08-25T09:53:55;11.35;;;5.72;;
24173;SDS011;12324;48.146;11.502;2022-08-25T09:56:24;11.45;;;5.47;;
24173;SDS011;12324;48.146;11.502;2022-08-25T09:58:52;11.93;;;5.60;;
24173;SDS011;12324;48.146;11.502;2022-08-25T10:01:20;12.35;;;5.90;;
24173;SDS011;12324;48.146;11.502;2022-08-25T10:04:01;11.40;;;5.68;;
24173;SDS011;12324;48.146;11.502;2022-08-25T10:06:34;11.13;;;4.97;;
24173;SDS011;12324;48.146;11.502;2022-08-25T10:09:04;11.17;;;5.33;;
24173;SDS011;12324;48.146;11.502;2022-08-25T10:11:37;10.68;;;4.78;;
24173;SDS011;12324;48.146;11.502;2022-08-25T10:14:07;10.20;;;4.93;;
24173;SDS011;12324;48.146;11.502;2022-08-25T10:16:41;11.57;;;5.40;;
24173;SDS011;12324;48.146;11.502;2022-08-25T10:19:23;13.15;;;5.47;;
24173;SDS011;12324;48.146;11.502;2022-08-25T10:24:27;11.05;;;4.53;;
24173;SDS011;12324;48.146;11.502;2022-08-25T10:34:55;9.70;;;4.50;;
24173;SDS011;12324;48.146;11.502;2022-08-25T10:45:24;8.98;;;4.97;;
24173;SDS011;12324;48.146;11.502;2022-08-25T10:53:22;9.10;;;4.28;;
24173;SDS011;12324;48.146;11.502;2022-08-25T10:59:08;7.35;;;4.22;;
24173;SDS011;12324;48.146;11.502;2022-08-25T11:04:06;10.32;;;4.65;;
24173;SDS011;12324;48.146;11.502;2022-08-25T11:06:50;9.45;;;4.18;;
24173;SDS011;12324;48.146;11.502;2022-08-25T11:09:22;8.38;;;4.72;;
24173;SDS011;12324;48.146;11.502;2022-08-25T11:11:58;8.10;;;4.38;;
24173;SDS011;12324;48.146;11.502;2022-08-25T11:14:34;10.35;;;4.63;;
24173;SDS011;12324;48.146;11.502;2022-08-25T11:17:09;11.07;;;5.00;;
24173;SDS011;12324;48.146;11.502;2022-08-25T11:19:51;10.23;;;4.55;;
24173;SDS011;12324;48.146;11.502;2022-08-25T11:22:38;10.68;;;4.40;;
24173;SDS011;12324;48.146;11.502;2022-08-25T11:25:25;9.80;;;4.15;;
24173;SDS011;12324;48.146;11.502;2022-08-25T11:30:25;8.68;;;4.68;;
24173;SDS011;12324;48.146;11.502;2022-08-25T11:32:54;8.35;;;4.32;;
24173;SDS011;12324;48.146;11.502;2022-08-25T11:35:40;9.00;;;4.93;;
24173;SDS011;12324;48.146;11.502;2022-08-25T11:46:26;8.50;;;4.53;;
24173;SDS011;12324;48.146;11.502;2022-08-25T11:49:02;8.93;;;4.78;;
24173;SDS011;12324;48.146;11.502;2022-08-25T11:51:52;12.80;;;5.90;;
24173;SDS011;12324;48.146;11.502;2022-08-25T11:57:09;9.05;;;5.00;;
24173;SDS011;12324;48.146;11.502;2022-08-25T12:10:52;13.07;;;5.55;;
24173;SDS011;12324;48.146;11.502;2022-08-25T12:21:49;9.68;;;5.05;;
24173;SDS011;12324;48.146;11.502;2022-08-25T12:25:02;10.85;;;5.03;;
24173;SDS011;12324;48.146;11.502;2022-08-25T12:27:26;11.73;;;5.53;;
24173;SDS011;12324;48.146;11.502;2022-08-25T12:30:26;12.20;;;5.03;;
24173;SDS011;12324;48.146;11.502;2022-08-25T12:41:10;9.45;;;4.63;;
24173;SDS011;12324;48.146;11.502;2022-08-25T12:43:50;14.45;;;5.35;;
24173;SDS011;12324;48.146;11.502;2022-08-25T12:49:00;13.52;;;5.95;;
24173;SDS011;12324;48.146;11.502;2022-08-25T12:51:53;10.88;;;4.95;;
24173;SDS011;12324;48.146;11.502;2022-08-25T13:00:20;13.25;;;5.43;;
24173;SDS011;12324;48.146;11.502;2022-08-25T13:08:47;12.57;;;6.20;;
24173;SDS011;12324;48.146;11.502;2022-08-25T13:16:53;11.80;;;6.03;;
24173;SDS011;12324;48.146;11.502;2022-08-25T13:19:22;12.23;;;5.60;;
24173;SDS011;12324;48.146;11.502;2022-08-25T13:21:51;11.98;;;6.32;;
24173;SDS011;12324;48.146;11.502;2022-08-25T13:24:23;13.02;;;6.00;;
24173;SDS011;12324;48.146;11.502;2022-08-25T13:26:58;11.35;;;5.72;;
24173;SDS011;12324;48.146;11.502;2022-08-25T13:29:32;12.75;;;5.88;;
24173;SDS011;12324;48.146;11.502;2022-08-25T13:32:06;15.10;;;6.28;;
24173;SDS011;12324;48.146;11.502;2022-08-25T13:34:40;11.43;;;5.55;;
24173;SDS011;12324;48.146;11.502;2022-08-25T13:40:08;12.38;;;6.13;;
24173;SDS011;12324;48.146;11.502;2022-08-25T13:42:52;12.23;;;5.63;;
24173;SDS011;12324;48.146;11.502;2022-08-25T13:45:24;13.13;;;5.25;;
24173;SDS011;12324;48.146;11.502;2022-08-25T13:47:53;13.13;;;6.35;;
24173;SDS011;12324;48.146;11.502;2022-08-25T13:50:28;9.77;;;5.55;;
24173;SDS011;12324;48.146;11.502;2022-08-25T13:55:32;10.90;;;4.93;;
24173;SDS011;12324;48.146;11.502;2022-08-25T13:58:17;10.57;;;5.28;;
24173;SDS011;12324;48.146;11.502;2022-08-25T14:03:49;10.93;;;4.75;;
24173;SDS011;12324;48.146;11.502;2022-08-25T14:06:26;11.02;;;5.15;;
24173;SDS011;12324;48.146;11.502;2022-08-25T14:11:39;11.90;;;5.95;;
24173;SDS011;12324;48.146;11.502;2022-08-25T14:14:10;12.90;;;5.80;;
24173;SDS011;12324;48.146;11.502;2022-08-25T14:16:39;11.85;;;5.78;;
24173;SDS011;12324;48.146;11.502;2022-08-25T14:19:11;13.15;;;5.82;;
24173;SDS011;12324;48.146;11.502;2022-08-25T14:21:45;12.02;;;5.95;;
24173;SDS011;12324;48.146;11.502;2022-08-25T14:24:19;16.42;;;6.65;;
24173;SDS011;12324;48.146;11.502;2022-08-25T14:26:47;13.07;;;5.93;;
24173;SDS011;12324;48.146;11.502;2022-08-25T14:29:20;12.25;;;5.70;;
24173;SDS011;12324;48.146;11.502;2022-08-25T14:31:48;11.35;;;5.10;;
24173;SDS011;12324;48.146;11.502;2022-08-25T14:34:37;13.77;;;6.28;;
24173;SDS011;12324;48.146;11.502;2022-08-25T14:37:05;12.13;;;5.82;;
24173;SDS011;12324;48.146;11.502;2022-08-25T14:39:34;12.73;;;5.72;;
24173;SDS011;12324;48.146;11.502;2022-08-25T14:42:01;14.25;;;5.88;;
24173;SDS011;12324;48.146;11.502;2022-08-25T14:44:28;12.38;;;6.18;;
24173;SDS011;12324;48.146;11.502;2022-08-25T14:46:56;12.43;;;6.07;;
24173;SDS011;12324;48.146;11.502;2022-08-25T14:49:25;13.43;;;6.47;;
24173;SDS011;12324;48.146;11.502;2022-08-25T14:52:03;11.70;;;5.90;;
24173;SDS011;12324;48.146;11.502;2022-08-25T14:54:34;18.85;;;6.53;;
24173;SDS011;12324;48.146;11.502;2022-08-25T14:57:03;12.55;;;6.00;;
24173;SDS011;12324;48.146;11.502;2022-08-25T14:59:33;13.02;;;6.38;;
24173;SDS011;12324;48.146;11.502;2022-08-25T15:02:08;15.40;;;6.28;;
24173;SDS011;12324;48.146;11.502;2022-08-25T15:04:38;14.15;;;6.00;;
24173;SDS011;12324;48.146;11.502;2022-08-25T15:07:14;18.20;;;6.57;;
24173;SDS011;12324;48.146;11.502;2022-08-25T15:09:59;11.07;;;6.03;;
24173;SDS011;12324;48.146;11.502;2022-08-25T15:12:26;11.70;;;5.50;;
24173;SDS011;12324;48.146;11.502;2022-08-25T15:15:12;11.23;;;5.70;;
24173;SDS011;12324;48.146;11.502;2022-08-25T15:17:39;12.93;;;5.82;;
24173;SDS011;12324;48.146;11.502;2022-08-25T15:20:09;11.98;;;5.70;;
24173;SDS011;12324;48.146;11.502;2022-08-25T15:22:37;19.02;;;7.53;;
24173;SDS011;12324;48.146;11.502;2022-08-25T15:25:07;18.08;;;7.32;;
24173;SDS011;12324;48.146;11.502;2022-08-25T15:27:34;17.27;;;6.57;;
24173;SDS011;12324;48.146;11.502;2022-08-25T15:30:02;16.58;;;7.03;;
24173;SDS011;12324;48.146;11.502;2022-08-25T15:32:30;20.80;;;6.38;;
24173;SDS011;12324;48.146;11.502;2022-08-25T15:34:57;14.68;;;6.60;;
24173;SDS011;12324;48.146;11.502;2022-08-25T15:37:25;15.25;;;6.70;;
24173;SDS011;12324;48.146;11.502;2022-08-25T15:39:52;16.42;;;6.40;;
24173;SDS011;12324;48.146;11.502;2022-08-25T15:42:19;14.50;;;5.93;;
24173;SDS011;12324;48.146;11.502;2022-08-25T15:44:46;18.00;;;7.10;;
24173;SDS011;12324;48.146;11.502;2022-08-25T15:47:19;12.13;;;6.05;;
24173;SDS011;12324;48.146;11.502;2022-08-25T15:49:46;10.65;;;6.10;;
24173;SDS011;12324;48.146;11.502;2022-08-25T15:52:13;18.25;;;7.57;;
24173;SDS011;12324;48.146;11.502;2022-08-25T15:54:39;13.23;;;6.72;;
24173;SDS011;12324;48.146;11.502;2022-08-25T15:57:07;18.58;;;7.45;;
24173;SDS011;12324;48.146;11.502;2022-08-25T15:59:37;17.55;;;7.15;;
24173;SDS011;12324;48.146;11.502;2022-08-25T16:02:06;15.23;;;6.78;;
24173;SDS011;12324;48.146;11.502;2022-08-25T16:04:40;14.75;;;6.05;;
24173;SDS011;12324;48.146;11.502;2022-08-25T16:07:07;15.27;;;6.55;;
24173;SDS011;12324;48.146;11.502;2022-08-25T16:09:39;16.80;;;6.15;;
24173;SDS011;12324;48.146;11.502;2022-08-25T16:12:06;12.73;;;5.63;;
24173;SDS011;12324;48.146;11.502;2022-08-25T16:14:34;11.50;;;5.90;;
24173;SDS011;12324;48.146;11.502;2022-08-25T16:17:02;12.18;;;6.05;;
24173;SDS011;12324;48.146;11.502;2022-08-25T16:19:29;16.08;;;6.63;;
24173;SDS011;12324;48.146;11.502;2022-08-25T16:21:57;13.60;;;5.47;;
24173;SDS011;12324;48.146;11.502;2022-08-25T16:24:25;12.27;;;5.60;;
24173;SDS011;12324;48.146;11.502;2022-08-25T16:26:52;14.13;;;6.47;;
24173;SDS011;12324;48.146;11.502;2022-08-25T16:29:21;17.38;;;6.68;;
24173;SDS011;12324;48.146;11.502;2022-08-25T16:31:48;13.25;;;5.57;;
24173;SDS011;12324;48.146;11.502;2022-08-25T16:34:18;10.93;;;5.55;;
24173;SDS011;12324;48.146;11.502;2022-08-25T16:36:45;13.40;;;5.90;;
24173;SDS011;12324;48.146;11.502;2022-08-25T16:39:17;14.52;;;5.15;;